Time;durP1;ratioP1;P1;durP2;ratioP2;P2;SDS_P1;SDS_P2;PMS_P1;PMS_P2;Temp;Humidity;BMP_temperature;BMP_pressure;BME280_temperature;BME280_humidity;BME280_pressure;Samples;Min_cycle;Max_cycle;Signal;HPM_P1;HPM_P2
2021/07/23 00:02:26;0.00;0.00;0.62;0.00;0.00;0.62;2.50;2.20;;;28.40;31.20;;;;;;2261795;61;20382;-58
2021/07/23 00:04:52;0.00;0.00;0.62;0.00;0.00;0.62;2.13;1.93;;;28.50;31.30;;;;;;2261331;61;20400;-59
2021/07/23 00:07:19;0.00;0.00;0.62;0.00;0.00;0.62;3.50;2.20;;;28.50;31.30;;;;;;2262103;61;20397;-59
2021/07/23 00:09:47;0.00;0.00;0.62;0.00;0.00;0.62;1.97;1.80;;;28.50;31.30;;;;;;2261850;61;20688;-59
2021/07/23 00:12:13;0.00;0.00;0.62;0.00;0.00;0.62;2.53;2.33;;;28.50;31.30;;;;;;2261066;61;20641;-59
2021/07/23 00:14:40;0.00;0.00;0.62;0.00;0.00;0.62;2.37;2.10;;;28.50;31.30;;;;;;2261951;61;20436;-59
2021/07/23 00:17:07;0.00;0.00;0.62;0.00;0.00;0.62;2.23;2.03;;;28.50;31.40;;;;;;2261660;61;20363;-59
2021/07/23 00:19:33;0.00;0.00;0.62;0.00;0.00;0.62;2.20;2.00;;;28.50;31.40;;;;;;2261303;61;20445;-58
2021/07/23 00:22:00;0.00;0.00;0.62;0.00;0.00;0.62;3.47;2.30;;;28.50;31.30;;;;;;2262233;61;20379;-59
2021/07/23 00:24:26;0.00;0.00;0.62;0.00;0.00;0.62;2.33;2.13;;;28.50;31.30;;;;;;2257968;61;20371;-59
2021/07/23 00:26:54;0.00;0.00;0.62;0.00;0.00;0.62;2.47;2.27;;;28.50;31.30;;;;;;2261104;61;20351;-59
2021/07/23 00:29:21;0.00;0.00;0.62;0.00;0.00;0.62;3.17;1.97;;;28.50;31.30;;;;;;2262101;61;20387;-58
2021/07/23 00:31:48;0.00;0.00;0.62;0.00;0.00;0.62;3.03;2.30;;;28.50;31.30;;;;;;2261616;61;20660;-59
2021/07/23 00:34:14;0.00;0.00;0.62;0.00;0.00;0.62;1.93;1.83;;;28.50;31.30;;;;;;2257249;61;20386;-59
2021/07/23 00:36:41;0.00;0.00;0.62;0.00;0.00;0.62;2.30;2.10;;;28.50;31.40;;;;;;2258250;61;20734;-60
2021/07/23 00:39:08;0.00;0.00;0.62;0.00;0.00;0.62;2.37;2.07;;;28.50;31.30;;;;;;2261456;61;20351;-59
2021/07/23 00:41:36;0.00;0.00;0.62;0.00;0.00;0.62;2.30;1.87;;;28.50;31.40;;;;;;2257278;61;20378;-59
2021/07/23 00:44:04;0.00;0.00;0.62;0.00;0.00;0.62;2.10;1.90;;;28.40;31.30;;;;;;2258328;61;20362;-59
2021/07/23 00:46:32;0.00;0.00;0.62;0.00;0.00;0.62;2.40;2.20;;;28.40;31.30;;;;;;2257848;61;20402;-56
2021/07/23 00:48:59;0.00;0.00;0.62;0.00;0.00;0.62;2.27;2.07;;;28.40;31.40;;;;;;2261129;61;20383;-59
2021/07/23 00:51:27;0.00;0.00;0.62;0.00;0.00;0.62;2.50;2.30;;;28.40;31.40;;;;;;2257998;61;20409;-58
2021/07/23 00:53:55;0.00;0.00;0.62;0.00;0.00;0.62;2.50;2.27;;;28.40;31.50;;;;;;2257904;61;20359;-57
2021/07/23 00:56:23;0.00;0.00;0.62;0.00;0.00;0.62;2.33;1.73;;;28.40;31.50;;;;;;2257274;61;20355;-59
2021/07/23 00:58:50;0.00;0.00;0.62;0.00;0.00;0.62;2.47;2.17;;;28.40;31.40;;;;;;2258105;61;20592;-58
2021/07/23 01:01:18;0.00;0.00;0.62;0.00;0.00;0.62;2.97;2.03;;;28.40;31.50;;;;;;2261516;61;20413;-59
2021/07/23 01:03:48;0.00;0.00;0.62;0.00;0.00;0.62;2.67;2.23;;;28.40;31.50;;;;;;2257504;61;20450;-60
2021/07/23 01:06:15;0.00;0.00;0.62;0.00;0.00;0.62;2.33;2.13;;;28.40;31.50;;;;;;2261633;61;20366;-58
2021/07/23 01:08:42;0.00;0.00;0.62;0.00;0.00;0.62;2.40;2.20;;;28.40;31.50;;;;;;2257964;61;20394;-59
2021/07/23 01:11:12;0.00;0.00;0.62;0.00;0.00;0.62;2.57;2.10;;;28.40;31.50;;;;;;2257092;61;20577;-58
2021/07/23 01:14:00;0.00;0.00;0.62;0.00;0.00;0.62;2.43;2.10;;;28.40;31.60;;;;;;2258052;61;20359;-55
2021/07/23 01:16:30;0.00;0.00;0.62;0.00;0.00;0.62;2.50;2.07;;;28.40;31.90;;;;;;2261594;61;20400;-58
2021/07/23 01:18:56;0.00;0.00;0.62;0.00;0.00;0.62;3.00;2.47;;;28.40;31.60;;;;;;2257235;61;20370;-59
2021/07/23 01:21:24;0.00;0.00;0.62;0.00;0.00;0.62;2.37;2.17;;;28.40;31.70;;;;;;2257933;61;20731;-58
2021/07/23 01:23:55;0.00;0.00;0.62;0.00;0.00;0.62;3.00;2.27;;;28.40;31.60;;;;;;2257967;61;20405;-59
2021/07/23 01:26:57;0.00;0.00;0.62;0.00;0.00;0.62;2.53;2.33;;;28.40;31.70;;;;;;2259023;61;20397;-59
2021/07/23 01:29:44;0.00;0.00;0.62;0.00;0.00;0.62;2.13;1.73;;;28.40;31.70;;;;;;2261920;61;20386;-59
2021/07/23 01:32:12;0.00;0.00;0.62;0.00;0.00;0.62;2.00;1.70;;;28.40;31.70;;;;;;2257447;61;20386;-59
2021/07/23 01:34:39;0.00;0.00;0.62;0.00;0.00;0.62;2.50;2.30;;;28.30;31.60;;;;;;2257447;61;20387;-58
2021/07/23 01:37:06;0.00;0.00;0.62;0.00;0.00;0.62;2.10;1.90;;;28.30;31.60;;;;;;2261703;61;20677;-59
2021/07/23 01:39:37;0.00;0.00;0.62;0.00;0.00;0.62;2.80;2.50;;;28.30;31.60;;;;;;2257327;61;20355;-59
2021/07/23 01:42:05;0.00;0.00;0.62;0.00;0.00;0.62;2.37;2.17;;;28.30;31.60;;;;;;2257397;61;20421;-59
2021/07/23 01:44:33;0.00;0.00;0.62;0.00;0.00;0.62;2.17;1.97;;;28.30;31.60;;;;;;2258192;61;20354;-59
2021/07/23 01:47:00;0.00;0.00;0.62;0.00;0.00;0.62;3.50;2.63;;;28.30;31.60;;;;;;2257108;61;20362;-60
2021/07/23 01:49:27;0.00;0.00;0.62;0.00;0.00;0.62;2.43;2.13;;;28.30;31.60;;;;;;2257475;61;20379;-59
2021/07/23 01:51:54;0.00;0.00;0.62;0.00;0.00;0.62;2.57;2.27;;;28.30;31.50;;;;;;2258014;61;20644;-58
2021/07/23 01:54:48;0.00;0.00;0.62;0.00;0.00;0.62;2.30;2.10;;;28.30;31.50;;;;;;2251829;61;20383;-58
2021/07/23 01:57:22;0.00;0.00;0.62;0.00;0.00;0.62;2.27;2.07;;;28.30;31.60;;;;;;2252483;61;20375;-59
2021/07/23 01:59:53;0.00;0.00;0.62;0.00;0.00;0.62;2.50;2.27;;;28.30;31.60;;;;;;2252951;61;20673;-59
2021/07/23 02:02:21;0.00;0.00;0.62;0.00;0.00;0.62;3.87;2.13;;;28.30;31.60;;;;;;2251977;61;20388;-59
2021/07/23 02:04:49;0.00;0.00;0.62;0.00;0.00;0.62;2.53;2.33;;;28.30;31.60;;;;;;2252596;61;20396;-59
2021/07/23 02:07:16;0.00;0.00;0.62;0.00;0.00;0.62;2.63;2.20;;;28.30;31.70;;;;;;2252789;61;20420;-59
2021/07/23 02:09:42;0.00;0.00;0.62;0.00;0.00;0.62;2.20;2.00;;;28.30;31.70;;;;;;2251978;61;20424;-58
2021/07/23 02:12:12;0.00;0.00;0.62;0.00;0.00;0.62;2.60;2.40;;;28.30;31.70;;;;;;2252573;61;20377;-59
2021/07/23 02:15:12;0.00;0.00;0.62;0.00;0.00;0.62;2.23;2.03;;;28.30;31.80;;;;;;2246264;61;20389;-60
2021/07/23 02:17:39;0.00;0.00;0.62;0.00;0.00;0.62;2.80;2.13;;;28.30;31.80;;;;;;2251802;61;20591;-60
2021/07/23 02:20:13;0.00;0.00;0.62;0.00;0.00;0.62;2.87;2.50;;;28.30;31.80;;;;;;2249536;61;20376;-61
2021/07/23 02:22:40;0.00;0.00;0.62;0.00;0.00;0.62;2.63;2.43;;;28.30;31.80;;;;;;2252584;61;20388;-58
2021/07/23 02:25:11;0.00;0.00;0.62;0.00;0.00;0.62;3.80;2.63;;;28.20;31.70;;;;;;2253787;61;20362;-60
2021/07/23 02:27:40;0.00;0.00;0.62;0.00;0.00;0.62;2.03;1.73;;;28.30;31.70;;;;;;2257837;61;20355;-59
2021/07/23 02:30:08;0.00;0.00;0.62;0.00;0.00;0.62;2.43;2.23;;;28.30;31.70;;;;;;2257607;61;20389;-59
2021/07/23 02:32:43;0.00;0.00;0.62;0.00;0.00;0.62;2.63;2.17;;;28.20;31.70;;;;;;2256990;61;20382;-59
2021/07/23 02:35:11;0.00;0.00;0.62;0.00;0.00;0.62;2.10;1.87;;;28.20;31.60;;;;;;2257770;61;20355;-59
2021/07/23 02:37:54;0.00;0.00;0.62;0.00;0.00;0.62;2.73;2.20;;;28.20;31.70;;;;;;2257572;61;20388;-60
2021/07/23 02:40:22;0.00;0.00;0.62;0.00;0.00;0.62;2.47;2.20;;;28.20;31.60;;;;;;2256837;61;20394;-60
2021/07/23 02:43:00;0.00;0.00;0.62;0.00;0.00;0.62;2.93;2.40;;;28.20;31.60;;;;;;2257938;61;20374;-60
2021/07/23 02:45:28;0.00;0.00;0.62;0.00;0.00;0.62;2.83;2.20;;;28.20;31.60;;;;;;2261114;61;20355;-60
2021/07/23 02:47:56;0.00;0.00;0.62;0.00;0.00;0.62;2.20;2.00;;;28.20;31.60;;;;;;2257267;61;20363;-60
2021/07/23 02:50:23;0.00;0.00;0.62;0.00;0.00;0.62;3.07;2.10;;;28.20;31.50;;;;;;2261505;61;20640;-59
2021/07/23 02:52:51;0.00;0.00;0.62;0.00;0.00;0.62;2.57;2.00;;;28.20;31.50;;;;;;2257289;61;20394;-60
2021/07/23 02:55:20;0.00;0.00;0.62;0.00;0.00;0.62;2.23;2.03;;;28.20;31.50;;;;;;2257045;61;20358;-60
2021/07/23 02:57:48;0.00;0.00;0.62;0.00;0.00;0.62;2.47;2.27;;;28.20;31.50;;;;;;2257696;61;20366;-59
2021/07/23 03:00:19;0.00;0.00;0.62;0.00;0.00;0.62;2.57;2.27;;;28.20;31.50;;;;;;2254040;61;20412;-60
2021/07/23 03:02:48;0.00;0.00;0.62;0.00;0.00;0.62;2.90;2.60;;;28.10;31.40;;;;;;2254172;61;20390;-59
2021/07/23 03:05:15;0.00;0.00;0.62;0.00;0.00;0.62;1.77;1.60;;;28.10;31.40;;;;;;2261581;61;20583;-59
2021/07/23 03:07:43;0.00;0.00;0.62;0.00;0.00;0.62;2.33;2.07;;;28.10;31.40;;;;;;2257162;61;20397;-59
2021/07/23 03:10:11;0.00;0.00;0.62;0.00;0.00;0.62;2.87;2.03;;;28.10;31.40;;;;;;2257233;61;20784;-60
2021/07/23 03:12:38;0.00;0.00;0.62;0.00;0.00;0.62;2.17;1.87;;;28.10;31.30;;;;;;2261551;61;20567;-58
2021/07/23 03:15:06;0.00;0.00;0.62;0.00;0.00;0.62;3.43;2.43;;;28.10;31.30;;;;;;2256872;61;20355;-59
2021/07/23 03:17:34;0.00;0.00;0.62;0.00;0.00;0.62;3.50;2.20;;;28.10;31.30;;;;;;2260624;61;20430;-59
2021/07/23 03:20:07;0.00;0.00;0.62;0.00;0.00;0.62;2.40;2.20;;;28.10;31.30;;;;;;2257841;61;20355;-58
2021/07/23 03:22:34;0.00;0.00;0.62;0.00;0.00;0.62;2.30;2.03;;;28.10;31.30;;;;;;2257428;61;20458;-58
2021/07/23 03:25:05;0.00;0.00;0.62;0.00;0.00;0.62;2.80;2.10;;;28.10;31.30;;;;;;2257412;61;20355;-58
2021/07/23 03:27:51;0.00;0.00;0.62;0.00;0.00;0.62;2.50;2.13;;;28.00;31.30;;;;;;2261529;61;20363;-59
2021/07/23 03:30:28;0.00;0.00;0.62;0.00;0.00;0.62;2.50;2.20;;;28.10;31.40;;;;;;2254510;61;20441;-57
2021/07/23 03:33:00;0.00;0.00;0.62;0.00;0.00;0.62;2.40;2.20;;;28.00;31.30;;;;;;2257435;61;20406;-59
2021/07/23 03:35:28;0.00;0.00;0.62;0.00;0.00;0.62;2.40;2.20;;;28.00;31.30;;;;;;2257588;61;20586;-59
2021/07/23 03:37:56;0.00;0.00;0.62;0.00;0.00;0.62;2.13;1.93;;;28.00;31.40;;;;;;2257396;61;20354;-59
2021/07/23 03:40:28;0.00;0.00;0.62;0.00;0.00;0.62;2.50;2.27;;;28.00;31.30;;;;;;2257399;61;20351;-58
2021/07/23 03:42:57;0.00;0.00;0.62;0.00;0.00;0.62;1.97;1.77;;;28.00;31.40;;;;;;2257650;61;20379;-59
2021/07/23 03:45:28;0.00;0.00;0.62;0.00;0.00;0.62;2.30;2.10;;;28.00;31.30;;;;;;2257433;61;20347;-57
2021/07/23 03:48:05;0.00;0.00;0.62;0.00;0.00;0.62;2.53;2.33;;;28.00;31.40;;;;;;2257648;61;20357;-59
2021/07/23 03:50:39;0.00;0.00;0.62;0.00;0.00;0.62;3.07;2.00;;;28.00;31.40;;;;;;2257620;61;20408;-59
2021/07/23 03:53:07;0.00;0.00;0.62;0.00;0.00;0.62;1.90;1.73;;;28.00;31.40;;;;;;2257063;61;20416;-59
2021/07/23 03:55:58;0.00;0.00;0.62;0.00;0.00;0.62;3.10;2.33;;;28.00;31.40;;;;;;2257411;61;20400;-59
2021/07/23 03:58:44;0.00;0.00;0.62;0.00;0.00;0.62;3.77;1.90;;;28.00;31.40;;;;;;2257808;61;20354;-60
2021/07/23 04:01:16;0.00;0.00;0.62;0.00;0.00;0.62;2.47;1.87;;;28.00;31.40;;;;;;2256697;61;20687;-58
2021/07/23 04:03:49;0.00;0.00;0.62;0.00;0.00;0.62;3.40;2.17;;;28.00;31.40;;;;;;2261420;61;20370;-59
2021/07/23 04:06:18;0.00;0.00;0.62;0.00;0.00;0.62;2.03;1.83;;;28.00;31.40;;;;;;2257796;61;20355;-59
2021/07/23 04:08:45;0.00;0.00;0.62;0.00;0.00;0.62;3.10;2.07;;;28.00;31.50;;;;;;2256886;61;20601;-59
2021/07/23 04:11:26;0.00;0.00;0.62;0.00;0.00;0.62;2.00;1.80;;;28.00;31.50;;;;;;2258248;61;20379;-57
2021/07/23 04:13:54;0.00;0.00;0.62;0.00;0.00;0.62;2.17;1.97;;;28.00;31.50;;;;;;2262167;61;20358;-59
2021/07/23 04:16:20;0.00;0.00;0.62;0.00;0.00;0.62;2.17;1.70;;;28.00;31.60;;;;;;2257424;61;20679;-59
2021/07/23 04:18:50;0.00;0.00;0.62;0.00;0.00;0.62;2.47;1.97;;;28.00;31.60;;;;;;2258366;61;20354;-57
2021/07/23 04:21:34;0.00;0.00;0.62;0.00;0.00;0.62;3.77;2.33;;;27.90;31.50;;;;;;2258392;61;20385;-59
2021/07/23 04:24:08;0.00;0.00;0.62;0.00;0.00;0.62;4.43;2.10;;;27.90;31.50;;;;;;2257702;61;20695;-59
2021/07/23 04:26:36;0.00;0.00;0.62;0.00;0.00;0.62;2.30;2.10;;;27.90;31.50;;;;;;2258432;61;20480;-58
2021/07/23 04:29:03;0.00;0.00;0.62;0.00;0.00;0.62;3.20;2.23;;;27.90;31.60;;;;;;2258280;61;20389;-58
2021/07/23 04:31:30;0.00;0.00;0.62;0.00;0.00;0.62;2.73;2.00;;;27.90;31.60;;;;;;2261233;61;20378;-59
2021/07/23 04:34:03;0.00;0.00;0.62;0.00;0.00;0.62;2.20;1.77;;;27.90;31.60;;;;;;2258239;61;20718;-59
2021/07/23 04:36:39;0.00;0.00;0.62;0.00;0.00;0.62;2.10;1.77;;;27.90;31.60;;;;;;2261579;61;20404;-59
2021/07/23 04:39:29;0.00;0.00;0.62;0.00;0.00;0.62;2.30;2.10;;;27.90;31.60;;;;;;2259887;61;20370;-59
2021/07/23 04:42:04;0.00;0.00;0.62;0.00;0.00;0.62;1.90;1.70;;;27.90;31.70;;;;;;2258227;61;20378;-60
2021/07/23 04:44:33;0.00;0.00;0.62;0.00;0.00;0.62;1.90;1.73;;;27.90;31.70;;;;;;2257930;61;20358;-59
2021/07/23 04:47:02;0.00;0.00;0.62;0.00;0.00;0.62;2.03;1.87;;;27.90;31.70;;;;;;2261515;61;20355;-59
2021/07/23 04:49:36;0.00;0.00;0.62;0.00;0.00;0.62;2.27;1.80;;;27.90;31.70;;;;;;2258404;61;20416;-59
2021/07/23 04:52:06;0.00;0.00;0.62;0.00;0.00;0.62;2.17;1.87;;;27.90;31.70;;;;;;2257674;61;20777;-57
2021/07/23 04:54:56;0.00;0.00;0.62;0.00;0.00;0.62;2.23;1.60;;;27.90;31.70;;;;;;2261724;61;20581;-59
2021/07/23 04:57:45;0.00;0.00;0.62;0.00;0.00;0.62;2.70;2.07;;;27.90;31.70;;;;;;2261896;61;20363;-59
2021/07/23 05:00:14;0.00;0.00;0.62;0.00;0.00;0.62;2.00;1.80;;;27.90;31.70;;;;;;2257453;61;20605;-59
2021/07/23 05:02:41;0.00;0.00;0.62;0.00;0.00;0.62;2.97;1.90;;;27.90;31.70;;;;;;2261985;61;20374;-58
2021/07/23 05:05:12;0.00;0.00;0.62;0.00;0.00;0.62;1.80;1.60;;;27.90;31.70;;;;;;2261942;61;20571;-56
2021/07/23 05:07:39;0.00;0.00;0.62;0.00;0.00;0.62;2.50;2.30;;;27.80;31.70;;;;;;2261283;61;20688;-59
2021/07/23 05:10:07;0.00;0.00;0.62;0.00;0.00;0.62;1.93;1.83;;;27.80;31.60;;;;;;2258004;61;20610;-59
2021/07/23 05:12:33;0.00;0.00;0.62;0.00;0.00;0.62;2.60;2.10;;;27.80;31.60;;;;;;2261925;61;20382;-60
2021/07/23 05:15:02;0.00;0.00;0.62;0.00;0.00;0.62;2.07;1.60;;;27.80;31.70;;;;;;2260956;61;20594;-60
2021/07/23 05:17:30;0.00;0.00;0.62;0.00;0.00;0.62;2.50;2.23;;;27.80;31.70;;;;;;2261837;61;20355;-61
2021/07/23 05:19:56;0.00;0.00;0.62;0.00;0.00;0.62;3.50;2.20;;;27.80;31.60;;;;;;2261758;61;20351;-60
2021/07/23 05:22:24;0.00;0.00;0.62;0.00;0.00;0.62;2.83;2.43;;;27.80;31.50;;;;;;2261162;61;20405;-60
2021/07/23 05:24:51;0.00;0.00;0.62;0.00;0.00;0.62;2.80;1.93;;;27.80;31.50;;;;;;2261824;61;20362;-60
2021/07/23 05:27:18;0.00;0.00;0.62;0.00;0.00;0.62;3.60;2.37;;;27.80;31.50;;;;;;2261930;61;20361;-59
2021/07/23 05:29:44;0.00;0.00;0.62;0.00;0.00;0.62;4.13;2.57;;;27.80;31.50;;;;;;2257384;61;20425;-60
2021/07/23 05:32:11;0.00;0.00;0.62;0.00;0.00;0.62;4.23;2.80;;;27.80;31.40;;;;;;2261655;61;20378;-59
2021/07/23 05:34:37;0.00;0.00;0.62;0.00;0.00;0.62;3.63;3.10;;;27.80;31.20;;;;;;2261789;61;20446;-60
2021/07/23 05:37:04;0.00;0.00;0.62;0.00;0.00;0.62;3.00;2.43;;;27.80;31.20;;;;;;2260965;61;20351;-60
2021/07/23 05:39:32;0.00;0.00;0.62;0.00;0.00;0.62;3.90;3.40;;;27.80;31.20;;;;;;2261685;61;20458;-59
2021/07/23 05:42:05;0.00;0.00;0.62;0.00;0.00;0.62;2.97;2.53;;;27.70;30.90;;;;;;2261755;61;20723;-60
2021/07/23 05:44:33;0.00;0.00;0.62;0.00;0.00;0.62;3.53;2.73;;;27.70;30.90;;;;;;2261211;61;20351;-60
2021/07/23 05:47:02;0.00;0.00;0.62;0.00;0.00;0.62;4.70;2.80;;;27.70;31.00;;;;;;2261756;61;20593;-59
2021/07/23 05:49:28;0.00;0.00;0.62;0.00;0.00;0.62;3.03;2.73;;;27.70;31.10;;;;;;2261879;61;20385;-60
2021/07/23 05:51:55;0.00;0.00;0.62;0.00;0.00;0.62;5.63;2.93;;;27.60;31.10;;;;;;2260995;61;20426;-60
2021/07/23 05:54:22;0.00;0.00;0.62;0.00;0.00;0.62;4.50;3.00;;;27.60;31.20;;;;;;2261630;61;20581;-60
2021/07/23 05:56:50;0.00;0.00;0.62;0.00;0.00;0.62;3.07;2.80;;;27.60;31.30;;;;;;2257926;61;20549;-59
2021/07/23 05:59:16;0.00;0.00;0.62;0.00;0.00;0.62;3.33;2.80;;;27.60;31.30;;;;;;2261021;61;20373;-60
2021/07/23 06:01:43;0.00;0.00;0.62;0.00;0.00;0.62;4.30;2.80;;;27.60;31.40;;;;;;2261590;61;20636;-59
2021/07/23 06:04:09;0.00;0.00;0.62;0.00;0.00;0.62;3.70;2.80;;;27.60;31.40;;;;;;2261734;61;20359;-57
2021/07/23 06:06:36;0.00;0.00;0.62;0.00;0.00;0.62;5.73;3.47;;;27.60;31.40;;;;;;2261066;61;20358;-60
2021/07/23 06:09:03;0.00;0.00;0.62;0.00;0.00;0.62;4.00;2.70;;;27.60;31.40;;;;;;2261554;61;20382;-60
2021/07/23 06:11:30;0.00;0.00;0.62;0.00;0.00;0.62;3.67;2.43;;;27.60;31.40;;;;;;2261555;61;20402;-60
2021/07/23 06:13:57;0.00;0.00;0.62;0.00;0.00;0.62;3.07;2.77;;;27.60;31.40;;;;;;2261037;61;20363;-60
2021/07/23 06:16:24;0.00;0.00;0.62;0.00;0.00;0.62;3.07;2.50;;;27.60;31.40;;;;;;2261677;61;20363;-61
2021/07/23 06:18:51;0.00;0.00;0.62;0.00;0.00;0.62;3.00;2.70;;;27.60;31.40;;;;;;2261607;61;20386;-61
2021/07/23 06:21:20;0.00;0.00;0.62;0.00;0.00;0.62;3.20;2.70;;;27.60;31.40;;;;;;2260967;61;20457;-60
2021/07/23 06:23:46;0.00;0.00;0.62;0.00;0.00;0.62;2.80;2.60;;;27.60;31.40;;;;;;2261563;61;20358;-61
2021/07/23 06:26:13;0.00;0.00;0.62;0.00;0.00;0.62;4.00;2.93;;;27.60;31.40;;;;;;2261771;61;20358;-61
2021/07/23 06:28:41;0.00;0.00;0.62;0.00;0.00;0.62;3.90;3.07;;;27.60;31.30;;;;;;2261011;61;20754;-60
2021/07/23 06:31:11;0.00;0.00;0.62;0.00;0.00;0.62;4.17;2.60;;;27.60;31.40;;;;;;2261350;61;20366;-61
2021/07/23 06:33:38;0.00;0.00;0.62;0.00;0.00;0.62;2.50;2.30;;;27.60;31.40;;;;;;2261593;61;20366;-61
2021/07/23 06:36:04;0.00;0.00;0.62;0.00;0.00;0.62;4.37;2.50;;;27.60;31.40;;;;;;2260959;61;20359;-61
2021/07/23 06:38:31;0.00;0.00;0.62;0.00;0.00;0.62;3.17;2.87;;;27.60;31.30;;;;;;2261482;61;20361;-61
2021/07/23 06:40:58;0.00;0.00;0.62;0.00;0.00;0.62;4.37;2.37;;;27.60;31.30;;;;;;2261508;61;20354;-61
2021/07/23 06:43:25;0.00;0.00;0.62;0.00;0.00;0.62;3.03;2.73;;;27.60;31.30;;;;;;2261106;61;20782;-60
2021/07/23 06:45:52;0.00;0.00;0.62;0.00;0.00;0.62;3.20;2.60;;;27.60;31.20;;;;;;2261508;61;20365;-60
2021/07/23 06:48:20;0.00;0.00;0.62;0.00;0.00;0.62;5.23;2.60;;;27.60;31.30;;;;;;2261716;61;20351;-60
2021/07/23 06:50:49;0.00;0.00;0.62;0.00;0.00;0.62;4.00;2.20;;;27.60;31.20;;;;;;2260924;61;20359;-60
2021/07/23 06:53:18;0.00;0.00;0.62;0.00;0.00;0.62;3.20;2.83;;;27.60;31.10;;;;;;2261451;61;20383;-60
2021/07/23 06:55:45;0.00;0.00;0.62;0.00;0.00;0.62;3.30;2.50;;;27.60;31.10;;;;;;2261575;61;20351;-60
2021/07/23 06:58:11;0.00;0.00;0.62;0.00;0.00;0.62;4.93;2.93;;;27.60;31.10;;;;;;2260920;61;20355;-61
2021/07/23 07:00:38;0.00;0.00;0.62;0.00;0.00;0.62;3.10;2.53;;;27.70;31.20;;;;;;2261381;61;20355;-60
2021/07/23 07:03:06;0.00;0.00;0.62;0.00;0.00;0.62;4.67;2.77;;;27.60;31.10;;;;;;2261560;61;20581;-61
2021/07/23 07:05:34;0.00;0.00;0.62;0.00;0.00;0.62;3.93;3.03;;;27.60;31.10;;;;;;2260949;61;20652;-60
2021/07/23 07:08:01;0.00;0.00;0.62;0.00;0.00;0.62;3.50;3.10;;;27.60;31.10;;;;;;2261529;61;20555;-60
2021/07/23 07:10:28;0.00;0.00;0.62;0.00;0.00;0.62;4.90;2.90;;;27.60;30.90;;;;;;2261517;61;20409;-60
2021/07/23 07:12:56;0.00;0.00;0.62;0.00;0.00;0.62;4.13;2.93;;;27.60;30.80;;;;;;2261040;61;20383;-60
2021/07/23 07:15:22;0.00;0.00;0.62;0.00;0.00;0.62;4.40;2.80;;;27.60;30.90;;;;;;2261342;61;20355;-61
2021/07/23 07:17:55;0.00;0.00;0.62;0.00;0.00;0.62;3.60;3.30;;;27.60;30.90;;;;;;2261519;61;20354;-60
2021/07/23 07:20:21;0.00;0.00;0.62;0.00;0.00;0.62;4.03;2.97;;;27.60;31.00;;;;;;2260901;61;20433;-59
2021/07/23 07:22:50;0.00;0.00;0.62;0.00;0.00;0.62;3.43;2.70;;;27.60;31.00;;;;;;2261404;61;20375;-59
2021/07/23 07:25:16;0.00;0.00;0.62;0.00;0.00;0.62;5.83;2.70;;;27.60;31.00;;;;;;2261603;61;20395;-60
2021/07/23 07:27:43;0.00;0.00;0.62;0.00;0.00;0.62;4.80;2.83;;;27.60;31.00;;;;;;2260847;61;20413;-59
2021/07/23 07:30:10;0.00;0.00;0.62;0.00;0.00;0.62;6.10;2.70;;;27.60;31.00;;;;;;2261319;61;20371;-60
2021/07/23 07:32:37;0.00;0.00;0.62;0.00;0.00;0.62;3.00;2.57;;;27.60;31.00;;;;;;2261613;61;20458;-60
2021/07/23 07:35:05;0.00;0.00;0.62;0.00;0.00;0.62;4.00;2.80;;;27.60;31.00;;;;;;2260685;61;20351;-61
2021/07/23 07:37:32;0.00;0.00;0.62;0.00;0.00;0.62;3.30;2.40;;;27.60;30.90;;;;;;2261345;61;20390;-61
2021/07/23 07:39:59;0.00;0.00;0.62;0.00;0.00;0.62;5.37;3.10;;;27.60;30.90;;;;;;2261350;61;20387;-60
2021/07/23 07:42:26;0.00;0.00;0.62;0.00;0.00;0.62;4.90;3.43;;;27.60;30.80;;;;;;2260935;61;20375;-60
2021/07/23 07:44:53;0.00;0.00;0.62;0.00;0.00;0.62;4.53;3.20;;;27.60;30.50;;;;;;2261679;61;20355;-60
2021/07/23 07:47:19;0.00;0.00;0.62;0.00;0.00;0.62;3.20;2.60;;;27.60;30.20;;;;;;2262263;61;20381;-59
2021/07/23 07:49:46;0.00;0.00;0.62;0.00;0.00;0.62;4.13;3.53;;;27.50;30.20;;;;;;2261764;61;20375;-59
2021/07/23 07:52:12;0.00;0.00;0.62;0.00;0.00;0.62;4.40;3.20;;;27.50;30.30;;;;;;2261727;61;20383;-59
2021/07/23 07:54:39;0.00;0.00;0.62;0.00;0.00;0.62;3.07;2.77;;;27.40;30.30;;;;;;2262138;61;20354;-61
2021/07/23 07:57:09;0.00;0.00;0.62;0.00;0.00;0.62;3.60;3.17;;;27.40;30.40;;;;;;2261661;61;20355;-59
2021/07/23 07:59:37;0.00;0.00;0.62;0.00;0.00;0.62;11.03;3.83;;;27.40;30.40;;;;;;2261825;61;20773;-61
2021/07/23 08:02:07;0.00;0.00;0.62;0.00;0.00;0.62;4.40;2.70;;;27.40;30.50;;;;;;2262287;61;20406;-59
2021/07/23 08:04:34;0.00;0.00;0.62;0.00;0.00;0.62;4.07;2.90;;;27.40;30.60;;;;;;2261800;61;20355;-61
2021/07/23 08:07:00;0.00;0.00;0.62;0.00;0.00;0.62;5.43;3.10;;;27.40;30.70;;;;;;2261810;61;20358;-60
2021/07/23 08:09:27;0.00;0.00;0.62;0.00;0.00;0.62;2.30;2.10;;;27.40;30.70;;;;;;2262221;61;20419;-61
2021/07/23 08:11:56;0.00;0.00;0.62;0.00;0.00;0.62;2.93;2.40;;;27.40;30.80;;;;;;2261711;61;20383;-61
2021/07/23 08:14:24;0.00;0.00;0.62;0.00;0.00;0.62;3.77;2.40;;;27.40;30.70;;;;;;2261780;61;20363;-60
2021/07/23 08:16:51;0.00;0.00;0.62;0.00;0.00;0.62;3.27;2.37;;;27.40;30.60;;;;;;2262027;61;20382;-60
2021/07/23 08:19:17;0.00;0.00;0.62;0.00;0.00;0.62;3.30;2.70;;;27.40;30.60;;;;;;2261674;61;20347;-59
2021/07/23 08:21:44;0.00;0.00;0.62;0.00;0.00;0.62;4.43;2.27;;;27.40;30.60;;;;;;2261473;61;20375;-58
2021/07/23 08:24:10;0.00;0.00;0.62;0.00;0.00;0.62;3.10;2.17;;;27.40;30.60;;;;;;2262198;61;20357;-62
2021/07/23 08:26:37;0.00;0.00;0.62;0.00;0.00;0.62;2.40;1.97;;;27.40;30.50;;;;;;2261746;61;20401;-61
2021/07/23 08:29:03;0.00;0.00;0.62;0.00;0.00;0.62;2.50;2.10;;;27.40;30.50;;;;;;2261731;61;20378;-61
2021/07/23 08:31:31;0.00;0.00;0.62;0.00;0.00;0.62;2.70;1.70;;;27.40;30.40;;;;;;2261938;61;20521;-62
2021/07/23 08:33:58;0.00;0.00;0.62;0.00;0.00;0.62;1.87;1.60;;;27.40;30.40;;;;;;2261834;61;20644;-61
2021/07/23 08:36:25;0.00;0.00;0.62;0.00;0.00;0.62;2.67;1.97;;;27.40;30.40;;;;;;2261514;61;20390;-61
2021/07/23 08:38:51;0.00;0.00;0.62;0.00;0.00;0.62;2.07;1.83;;;27.40;30.40;;;;;;2261969;61;20347;-62
2021/07/23 08:41:18;0.00;0.00;0.62;0.00;0.00;0.62;2.80;1.93;;;27.40;30.50;;;;;;2261509;61;20373;-61
2021/07/23 08:43:46;0.00;0.00;0.62;0.00;0.00;0.62;1.93;1.70;;;27.50;30.70;;;;;;2261692;61;20381;-61
2021/07/23 08:46:14;0.00;0.00;0.62;0.00;0.00;0.62;1.93;1.73;;;27.50;30.70;;;;;;2262260;61;20355;-62
2021/07/23 08:48:42;0.00;0.00;0.62;0.00;0.00;0.62;2.73;1.90;;;27.50;30.70;;;;;;2261636;61;20351;-61
2021/07/23 08:51:10;0.00;0.00;0.62;0.00;0.00;0.62;2.53;1.80;;;27.50;30.80;;;;;;2261452;61;20398;-61
2021/07/23 08:53:36;0.00;0.00;0.62;0.00;0.00;0.62;2.53;1.97;;;27.50;30.80;;;;;;2262070;61;20351;-61
2021/07/23 08:56:04;0.00;0.00;0.62;0.00;0.00;0.62;2.10;1.90;;;27.60;30.90;;;;;;2261390;61;20355;-59
2021/07/23 08:58:31;0.00;0.00;0.62;0.00;0.00;0.62;2.77;2.03;;;27.60;30.90;;;;;;2261568;61;20355;-61
2021/07/23 09:01:00;0.00;0.00;0.62;0.00;0.00;0.62;2.00;1.60;;;27.60;30.90;;;;;;2261921;61;20362;-60
2021/07/23 09:03:31;0.00;0.00;0.62;0.00;0.00;0.62;2.40;1.47;;;27.70;31.00;;;;;;2261531;61;20375;-60
2021/07/23 09:06:17;0.00;0.00;0.62;0.00;0.00;0.62;2.10;1.60;;;27.70;31.00;;;;;;2261654;61;20617;-60
2021/07/23 09:08:47;0.00;0.00;0.62;0.00;0.00;0.62;2.00;1.80;;;27.70;31.00;;;;;;2262028;61;20365;-59
2021/07/23 09:11:14;0.00;0.00;0.62;0.00;0.00;0.62;2.07;1.60;;;27.70;31.00;;;;;;2257519;61;20601;-59
2021/07/23 09:13:41;0.00;0.00;0.62;0.00;0.00;0.62;1.90;1.57;;;27.70;31.00;;;;;;2261705;61;20355;-59
2021/07/23 09:16:25;0.00;0.00;0.62;0.00;0.00;0.62;1.93;1.70;;;27.80;31.10;;;;;;2258082;61;20366;-60
2021/07/23 09:19:05;0.00;0.00;0.62;0.00;0.00;0.62;3.10;1.70;;;27.80;31.10;;;;;;2261255;61;20581;-59
2021/07/23 09:21:36;0.00;0.00;0.62;0.00;0.00;0.62;2.30;1.70;;;27.80;31.10;;;;;;2261638;61;20414;-61
2021/07/23 09:24:04;0.00;0.00;0.62;0.00;0.00;0.62;2.80;1.40;;;27.80;31.20;;;;;;2258242;61;20621;-62
2021/07/23 09:26:40;0.00;0.00;0.62;0.00;0.00;0.62;2.80;2.00;;;27.90;31.20;;;;;;2261221;61;20613;-61
2021/07/23 09:29:08;0.00;0.00;0.62;0.00;0.00;0.62;2.50;2.10;;;27.90;31.20;;;;;;2261856;61;20370;-61
2021/07/23 09:31:35;0.00;0.00;0.62;0.00;0.00;0.62;2.10;1.83;;;27.90;31.30;;;;;;2261819;61;20385;-61
2021/07/23 09:34:04;0.00;0.00;0.62;0.00;0.00;0.62;2.50;2.30;;;28.00;31.30;;;;;;2261145;61;20351;-60
2021/07/23 09:36:32;0.00;0.00;0.62;0.00;0.00;0.62;2.80;1.70;;;28.00;31.30;;;;;;2261761;61;20397;-60
2021/07/23 09:39:05;0.00;0.00;0.62;0.00;0.00;0.62;2.43;1.80;;;28.00;31.30;;;;;;2261825;61;20347;-62
2021/07/23 09:41:33;0.00;0.00;0.62;0.00;0.00;0.62;4.43;2.43;;;28.00;31.30;;;;;;2260892;61;20387;-59
2021/07/23 09:44:02;0.00;0.00;0.62;0.00;0.00;0.62;2.57;1.90;;;28.00;31.30;;;;;;2261809;61;20438;-60
2021/07/23 09:46:33;0.00;0.00;0.62;0.00;0.00;0.62;2.37;1.80;;;28.10;31.30;;;;;;2261863;61;20351;-61
2021/07/23 09:49:18;0.00;0.00;0.62;0.00;0.00;0.62;2.83;1.80;;;28.10;31.40;;;;;;2260965;61;20382;-62
2021/07/23 09:51:44;0.00;0.00;0.62;0.00;0.00;0.62;2.40;2.00;;;28.10;31.40;;;;;;2261495;61;20730;-61